createdAt,value
2019-04-07T00:00:32.828Z,111.70
2019-04-07T00:03:01.326Z,113.67
2019-04-07T00:05:29.757Z,99.93
2019-04-07T00:07:59.066Z,102.93
2019-04-07T00:10:28.642Z,105.70
2019-04-07T00:12:57.406Z,103.23
2019-04-07T00:15:25.945Z,110.47
2019-04-07T00:17:54.404Z,106.07
2019-04-07T00:20:23.614Z,104.00
2019-04-07T00:22:52.356Z,108.83
2019-04-07T00:25:20.918Z,111.63
2019-04-07T00:27:49.462Z,97.30
2019-04-07T00:30:18.121Z,104.67
2019-04-07T00:32:46.739Z,115.13
2019-04-07T00:35:23.180Z,109.60
2019-04-07T00:37:46.100Z,108.93
2019-04-07T00:40:15.226Z,100.33
2019-04-07T00:42:43.667Z,108.03
2019-04-07T00:45:12.426Z,104.40
2019-04-07T00:47:41.464Z,91.30
2019-04-07T00:50:10.500Z,98.00
2019-04-07T00:52:39.135Z,95.07
2019-04-07T00:55:07.773Z,100.07
2019-04-07T00:57:36.343Z,93.23
2019-04-07T01:00:09.558Z,95.47
2019-04-07T01:02:38.802Z,104.20
2019-04-07T01:05:08.527Z,103.40
2019-04-07T01:07:36.959Z,104.73
2019-04-07T01:10:06.719Z,107.53
2019-04-07T01:12:35.798Z,98.13
2019-04-07T01:15:07.680Z,91.23
2019-04-07T01:17:36.992Z,109.47
2019-04-07T01:20:08.885Z,98.77
2019-04-07T01:22:37.691Z,112.97
2019-04-07T01:25:07.088Z,97.73
2019-04-07T01:27:35.836Z,100.50
2019-04-07T01:30:06.266Z,93.30
2019-04-07T01:32:34.800Z,102.93
2019-04-07T01:35:03.392Z,95.17
2019-04-07T01:37:31.892Z,99.60
2019-04-07T01:40:19.894Z,111.00
2019-04-07T01:42:50.971Z,102.37
2019-04-07T01:45:37.855Z,102.37
2019-04-07T01:48:10.602Z,98.57
2019-04-07T01:50:40.679Z,102.83
2019-04-07T01:53:22.882Z,109.63
2019-04-07T01:56:09.703Z,96.60
2019-04-07T01:58:54.987Z,108.57
2019-04-07T02:01:41.726Z,102.57
2019-04-07T02:04:11.867Z,98.20
2019-04-07T02:06:50.778Z,100.03
2019-04-07T02:09:23.709Z,97.53
2019-04-07T02:12:10.417Z,98.77
2019-04-07T02:14:49.918Z,101.70
2019-04-07T02:17:22.578Z,97.90
2019-04-07T02:19:58.780Z,91.73
2019-04-07T02:22:40.916Z,92.70
2019-04-07T02:25:37.330Z,103.87
2019-04-07T02:28:16.554Z,98.30
2019-04-07T02:30:49.502Z,90.10
2019-04-07T02:33:28.860Z,102.47
2019-04-07T02:36:13.534Z,101.40
2019-04-07T02:38:40.030Z,105.13
2019-04-07T02:41:24.988Z,108.20
2019-04-07T02:43:57.766Z,101.40
2019-04-07T02:46:31.387Z,96.90
2019-04-07T02:49:20.195Z,97.23
2019-04-07T02:52:06.339Z,96.37
2019-04-07T02:54:49.652Z,99.73
2019-04-07T02:57:29.125Z,98.53
2019-04-07T03:00:08.009Z,105.73
2019-04-07T03:02:39.205Z,99.60
2019-04-07T03:05:09.613Z,102.90
2019-04-07T03:07:43.105Z,104.73
2019-04-07T03:10:25.668Z,103.27
2019-04-07T03:12:56.010Z,96.87
2019-04-07T03:15:42.591Z,97.60
2019-04-07T03:18:31.982Z,103.70
2019-04-07T03:21:14.651Z,108.37
2019-04-07T03:23:45.890Z,105.73
2019-04-07T03:26:29.180Z,99.57
2019-04-07T03:29:09.730Z,114.23
2019-04-07T03:31:48.474Z,98.53
2019-04-07T03:34:26.166Z,101.93
2019-04-07T03:37:19.368Z,97.73
2019-04-07T03:39:39.380Z,107.43
2019-04-07T03:42:10.602Z,105.73
2019-04-07T03:44:43.598Z,102.07
2019-04-07T03:47:16.468Z,89.13
2019-04-07T03:50:02.131Z,104.93
2019-04-07T03:52:33.992Z,92.77
2019-04-07T03:55:09.963Z,92.13
2019-04-07T03:57:49.456Z,94.50
2019-04-07T04:01:08.208Z,97.33
2019-04-07T04:03:44.280Z,97.10
2019-04-07T04:06:14.413Z,90.53
2019-04-07T04:08:47.652Z,92.10
2019-04-07T04:11:34.505Z,91.23
2019-04-07T04:14:19.522Z,95.27
2019-04-07T04:16:49.594Z,84.23
2019-04-07T04:19:18.767Z,88.03
2019-04-07T04:21:47.903Z,81.43
2019-04-07T04:24:16.927Z,89.77
2019-04-07T04:26:45.989Z,87.63
2019-04-07T04:29:14.632Z,74.87
2019-04-07T04:31:43.433Z,72.80
2019-04-07T04:34:12.187Z,84.37
2019-04-07T04:36:40.634Z,93.40
2019-04-07T04:39:10.016Z,83.27
2019-04-07T04:41:38.679Z,80.80
2019-04-07T04:44:07.344Z,79.63
2019-04-07T04:46:36.766Z,91.63
2019-04-07T04:49:06.716Z,81.37
2019-04-07T04:51:39.101Z,90.77
2019-04-07T04:54:05.581Z,78.77
2019-04-07T04:56:34.010Z,75.97
2019-04-07T04:59:02.425Z,83.03
2019-04-07T05:01:31.074Z,88.37
2019-04-07T05:03:59.629Z,74.47
2019-04-07T05:06:29.542Z,84.43
2019-04-07T05:08:58.142Z,81.57
2019-04-07T05:11:26.574Z,94.30
2019-04-07T05:13:55.475Z,87.47
2019-04-07T05:16:24.088Z,83.80
2019-04-07T05:18:52.911Z,88.77
2019-04-07T05:21:21.505Z,89.57
2019-04-07T05:23:50.175Z,79.13
2019-04-07T05:26:18.970Z,84.70
2019-04-07T05:28:48.252Z,89.73
2019-04-07T05:31:16.854Z,83.07
2019-04-07T05:33:45.298Z,85.77
2019-04-07T05:36:14.738Z,81.90
2019-04-07T05:38:43.228Z,79.30
2019-04-07T05:41:11.792Z,73.57
2019-04-07T05:43:40.581Z,85.40
2019-04-07T05:46:09.221Z,77.60
2019-04-07T05:48:38.278Z,78.40
2019-04-07T05:51:07.246Z,75.43
2019-04-07T05:53:36.078Z,81.40
2019-04-07T05:56:06.005Z,76.00
2019-04-07T05:58:37.467Z,84.27
2019-04-07T06:01:05.228Z,79.50
2019-04-07T06:03:38.707Z,74.73
2019-04-07T06:06:04.854Z,80.53
2019-04-07T06:08:38.732Z,74.27
2019-04-07T06:11:04.164Z,79.13
2019-04-07T06:13:32.942Z,79.87
2019-04-07T06:16:02.037Z,75.27
2019-04-07T06:18:33.382Z,77.40
2019-04-07T06:21:00.814Z,73.37
2019-04-07T06:23:29.806Z,74.40
2019-04-07T06:26:00.307Z,83.47
2019-04-07T06:28:29.231Z,96.77
2019-04-07T06:31:00.198Z,85.00
2019-04-07T06:33:28.540Z,81.40
2019-04-07T06:35:57.397Z,84.70
2019-04-07T06:38:33.677Z,87.77
2019-04-07T06:41:00.093Z,84.73
2019-04-07T06:43:27.037Z,74.47
2019-04-07T06:46:13.931Z,70.20
2019-04-07T06:48:59.314Z,70.40
2019-04-07T06:51:35.621Z,75.07
2019-04-07T06:54:22.321Z,80.70
2019-04-07T06:57:09.431Z,74.13
2019-04-07T06:59:39.669Z,60.03
2019-04-07T07:02:18.805Z,61.07
2019-04-07T07:05:05.573Z,68.97
2019-04-07T07:10:35.626Z,59.63
2019-04-07T07:13:11.010Z,70.53
2019-04-07T07:15:46.222Z,55.77
2019-04-07T07:18:23.825Z,67.67
2019-04-07T07:20:54.769Z,69.53
2019-04-07T07:23:26.372Z,62.73
2019-04-07T07:25:55.499Z,67.17
2019-04-07T07:28:24.192Z,62.30
2019-04-07T07:30:53.674Z,58.10
2019-04-07T07:33:22.388Z,60.17
2019-04-07T07:35:50.954Z,58.70
2019-04-07T07:38:19.386Z,53.07
2019-04-07T07:40:49.360Z,60.43
2019-04-07T07:43:18.545Z,59.53
2019-04-07T07:45:48.534Z,62.63
2019-04-07T07:48:17.520Z,54.23
2019-04-07T07:50:46.955Z,56.40
2019-04-07T07:53:15.809Z,52.57
2019-04-07T07:55:44.549Z,55.03
2019-04-07T07:58:34.203Z,47.70
2019-04-07T08:01:03.202Z,55.20
2019-04-07T08:03:31.869Z,57.77
2019-04-07T08:06:04.829Z,48.47
2019-04-07T08:08:30.453Z,63.33
2019-04-07T08:11:01.516Z,57.37
2019-04-07T08:13:29.038Z,63.17
2019-04-07T08:15:59.382Z,59.60
2019-04-07T08:18:27.646Z,58.03
2019-04-07T08:20:56.716Z,39.67
2019-04-07T08:23:26.233Z,58.20
2019-04-07T08:25:56.105Z,50.47
2019-04-07T08:28:25.399Z,50.13
2019-04-07T08:30:54.428Z,60.13
2019-04-07T08:33:23.719Z,55.23
2019-04-07T08:35:54.861Z,52.27
2019-04-07T08:38:25.872Z,54.50
2019-04-07T08:40:54.872Z,55.03
2019-04-07T08:43:23.640Z,48.07
2019-04-07T08:45:53.643Z,53.70
2019-04-07T08:48:22.498Z,54.63
2019-04-07T08:50:51.753Z,61.23
2019-04-07T08:53:22.910Z,51.57
2019-04-07T08:55:57.808Z,49.37
2019-04-07T08:58:29.661Z,54.03
2019-04-07T09:00:57.409Z,59.73
2019-04-07T09:03:26.001Z,45.27
2019-04-07T09:05:56.674Z,51.43
2019-04-07T09:08:24.638Z,50.63
2019-04-07T09:11:03.651Z,51.30
2019-04-07T09:13:34.084Z,54.50
2019-04-07T09:16:20.149Z,48.23
2019-04-07T09:19:01.138Z,50.30
2019-04-07T09:21:37.244Z,54.90
2019-04-07T09:24:15.297Z,48.70
2019-04-07T09:27:01.362Z,47.77
2019-04-07T09:29:37.682Z,53.40
2019-04-07T09:32:19.510Z,49.80
2019-04-07T09:35:07.238Z,46.53
2019-04-07T09:37:43.393Z,54.97
2019-04-07T09:40:16.497Z,45.80
2019-04-07T09:42:48.243Z,50.27
2019-04-07T09:45:38.590Z,48.10
2019-04-07T09:48:08.814Z,48.90
2019-04-07T09:50:55.441Z,53.23
2019-04-07T09:53:28.626Z,42.53
2019-04-07T09:56:17.294Z,45.83
2019-04-07T09:58:47.557Z,45.40
2019-04-07T10:01:33.043Z,59.13
2019-04-07T10:04:15.399Z,42.33
2019-04-07T10:06:45.480Z,37.70
2019-04-07T10:09:30.578Z,39.93
2019-04-07T10:12:15.325Z,39.20
2019-04-07T10:14:48.820Z,34.00
2019-04-07T10:17:38.480Z,26.27
2019-04-07T10:20:12.396Z,36.07
2019-04-07T10:22:42.975Z,28.67
2019-04-07T10:25:16.604Z,36.53
2019-04-07T10:27:49.554Z,29.43
2019-04-07T10:30:39.219Z,33.00
2019-04-07T10:33:13.335Z,30.00
2019-04-07T10:35:49.572Z,31.20
2019-04-07T10:38:36.390Z,31.07
2019-04-07T10:41:06.801Z,29.13
2019-04-07T10:43:37.026Z,31.43
2019-04-07T10:46:07.846Z,28.43
2019-04-07T10:48:47.765Z,29.77
2019-04-07T10:51:36.894Z,28.20
2019-04-07T10:54:22.299Z,30.90
2019-04-07T10:56:52.534Z,30.50
2019-04-07T10:59:39.111Z,31.93
2019-04-07T11:02:09.231Z,32.37
2019-04-07T11:04:45.103Z,30.60
2019-04-07T11:07:18.765Z,46.77
2019-04-07T11:10:05.295Z,34.67
2019-04-07T11:12:44.308Z,35.03
2019-04-07T11:15:15.744Z,36.37
2019-04-07T11:17:58.239Z,42.47
2019-04-07T11:20:34.173Z,44.50
2019-04-07T11:23:13.076Z,39.20
2019-04-07T11:25:51.989Z,38.40
2019-04-07T11:28:22.580Z,35.80
2019-04-07T11:31:02.230Z,35.30
2019-04-07T11:33:35.123Z,31.10
2019-04-07T11:36:20.356Z,38.87
2019-04-07T11:38:52.583Z,38.50
2019-04-07T11:41:27.159Z,33.90
2019-04-07T11:44:07.503Z,39.17
2019-04-07T11:46:56.263Z,38.13
2019-04-07T11:49:26.739Z,36.60
2019-04-07T11:52:13.641Z,39.10
2019-04-07T11:54:49.643Z,41.67
2019-04-07T11:58:07.392Z,38.30
2019-04-07T12:00:29.911Z,43.07
2019-04-07T12:03:00.808Z,40.13
2019-04-07T12:05:31.119Z,42.40
2019-04-07T12:08:04.968Z,38.67
2019-04-07T12:10:58.564Z,39.07
2019-04-07T12:13:22.286Z,40.70
2019-04-07T12:18:39.730Z,38.10
2019-04-07T12:21:25.816Z,40.70
2019-04-07T12:23:56.676Z,43.87
2019-04-07T12:26:43.693Z,49.10
2019-04-07T12:29:16.790Z,41.50
2019-04-07T12:31:56.495Z,42.13
2019-04-07T12:34:27.542Z,41.30
2019-04-07T12:37:14.389Z,56.33
2019-04-07T12:40:06.496Z,44.07
2019-04-07T12:42:45.406Z,41.97
2019-04-07T12:45:40.690Z,44.37
2019-04-07T12:48:30.652Z,48.43
2019-04-07T12:51:00.826Z,47.20
2019-04-07T12:53:36.858Z,36.43
2019-04-07T12:56:25.402Z,44.37
2019-04-07T12:58:59.009Z,42.83
2019-04-07T13:01:39.264Z,39.07
2019-04-07T13:04:26.611Z,40.97
2019-04-07T13:12:14.047Z,49.93
2019-04-07T13:15:01.129Z,40.80
2019-04-07T13:17:34.423Z,40.20
2019-04-07T13:20:03.992Z,46.63
2019-04-07T13:22:35.176Z,35.30
2019-04-07T13:25:18.817Z,40.23
2019-04-07T13:30:58.434Z,42.37
2019-04-07T13:33:38.103Z,47.93
2019-04-07T13:36:09.273Z,45.90
2019-04-07T13:38:51.701Z,40.13
2019-04-07T13:41:45.915Z,36.30
2019-04-07T13:47:00.677Z,35.80
2019-04-07T13:52:37.148Z,29.13
2019-04-07T13:55:28.499Z,30.73
2019-04-07T13:58:05.481Z,27.13
2019-04-07T14:00:48.357Z,27.57
2019-04-07T14:03:23.947Z,23.73
2019-04-07T14:05:53.549Z,22.13
2019-04-07T14:08:25.803Z,23.30
2019-04-07T14:11:12.254Z,21.40
2019-04-07T14:13:42.720Z,21.47
2019-04-07T14:16:15.970Z,22.37
2019-04-07T14:19:03.549Z,20.90
2019-04-07T14:21:49.347Z,23.20
2019-04-07T14:24:19.836Z,27.83
2019-04-07T14:27:07.319Z,20.97
2019-04-07T14:29:54.843Z,17.00
2019-04-07T14:32:31.307Z,21.33
2019-04-07T14:35:14.054Z,18.17
2019-04-07T14:38:00.715Z,19.70
2019-04-07T14:40:30.870Z,18.93
2019-04-07T14:43:13.660Z,17.30
2019-04-07T14:45:52.868Z,18.53
2019-04-07T14:48:37.690Z,19.30
2019-04-07T14:54:18.468Z,19.73
2019-04-07T14:56:48.890Z,17.67
2019-04-07T14:59:38.347Z,18.60
2019-04-07T15:02:07.602Z,17.57
2019-04-07T15:04:37.989Z,20.10
2019-04-07T15:07:09.879Z,21.13
2019-04-07T15:09:40.110Z,18.50
2019-04-07T15:12:17.542Z,21.90
2019-04-07T15:14:40.588Z,37.10
2019-04-07T15:17:09.574Z,24.33
2019-04-07T15:19:38.635Z,21.30
2019-04-07T15:22:07.875Z,24.40
2019-04-07T15:24:37.654Z,24.60
2019-04-07T15:27:07.735Z,27.03
2019-04-07T15:29:41.350Z,32.57
2019-04-07T15:32:07.293Z,24.93
2019-04-07T15:34:39.542Z,22.03
2019-04-07T15:37:06.700Z,23.47
2019-04-07T15:39:37.196Z,23.83
2019-04-07T15:42:07.021Z,23.20
2019-04-07T15:44:37.221Z,23.33
2019-04-07T15:47:06.159Z,25.77
2019-04-07T15:49:34.845Z,29.03
2019-04-07T15:52:07.775Z,27.80
2019-04-07T15:54:33.884Z,26.77
2019-04-07T15:57:02.586Z,25.93
2019-04-07T15:59:31.451Z,27.03
2019-04-07T16:01:59.941Z,23.77
2019-04-07T16:04:29.567Z,25.43
2019-04-07T16:06:59.049Z,24.70
2019-04-07T16:09:36.052Z,26.67
2019-04-07T16:11:59.226Z,27.80
2019-04-07T16:14:28.018Z,33.77
2019-04-07T16:16:59.619Z,27.00
2019-04-07T16:19:37.717Z,27.60
2019-04-07T16:21:57.208Z,25.77
2019-04-07T16:24:25.940Z,32.50
2019-04-07T16:26:54.717Z,36.93
2019-04-07T16:29:23.520Z,29.63
2019-04-07T16:31:55.756Z,30.63
2019-04-07T16:34:22.812Z,29.97
2019-04-07T16:36:53.022Z,25.03
2019-04-07T16:39:23.017Z,25.80
2019-04-07T16:41:51.649Z,24.67
2019-04-07T16:44:20.094Z,29.30
2019-04-07T16:46:48.935Z,26.07
2019-04-07T16:49:19.013Z,26.90
2019-04-07T16:51:48.011Z,28.80
2019-04-07T16:54:16.443Z,50.93
2019-04-07T16:56:45.536Z,29.80
2019-04-07T16:59:14.064Z,27.40
2019-04-07T17:01:43.279Z,32.33
2019-04-07T17:04:12.661Z,29.57
2019-04-07T17:06:42.141Z,32.77
2019-04-07T17:09:23.054Z,104.60
2019-04-07T17:11:50.477Z,42.43
2019-04-07T17:14:19.181Z,36.13
2019-04-07T17:17:07.046Z,36.30
2019-04-07T17:19:35.833Z,28.53
2019-04-07T17:22:04.632Z,31.90
2019-04-07T17:24:33.466Z,29.43
2019-04-07T17:27:03.098Z,33.30
2019-04-07T17:29:32.270Z,32.87
2019-04-07T17:32:01.759Z,28.90
2019-04-07T17:34:31.158Z,39.33
2019-04-07T17:36:59.593Z,30.00
2019-04-07T17:39:29.656Z,31.63
2019-04-07T17:42:00.182Z,29.03
2019-04-07T17:44:36.360Z,32.07
2019-04-07T17:47:23.383Z,30.27
2019-04-07T17:49:56.615Z,31.53
2019-04-07T17:52:26.109Z,36.63
2019-04-07T17:55:11.523Z,43.73
2019-04-07T17:57:47.355Z,33.57
2019-04-07T18:00:18.538Z,33.97
2019-04-07T18:02:54.863Z,36.83
2019-04-07T18:05:36.603Z,39.67
2019-04-07T18:08:16.564Z,39.07
2019-04-07T18:10:54.102Z,34.73
2019-04-07T18:16:25.584Z,43.27
2019-04-07T18:18:59.631Z,40.50
2019-04-07T18:21:48.733Z,38.60
2019-04-07T18:24:32.121Z,43.20
2019-04-07T18:27:14.217Z,37.80
2019-04-07T18:29:45.991Z,39.90
2019-04-07T18:32:32.938Z,39.73
2019-04-07T18:35:15.269Z,40.30
2019-04-07T18:37:52.825Z,42.60
2019-04-07T18:40:27.323Z,38.83
2019-04-07T18:43:00.956Z,41.13
2019-04-07T18:45:48.478Z,38.37
2019-04-07T18:48:31.820Z,47.23
2019-04-07T18:51:10.670Z,40.07
2019-04-07T18:53:42.841Z,39.20
2019-04-07T18:56:14.080Z,35.03
2019-04-07T18:58:47.073Z,45.57
2019-04-07T19:01:19.016Z,39.57
2019-04-07T19:03:53.394Z,40.63
2019-04-07T19:06:23.729Z,41.40
2019-04-07T19:09:03.544Z,41.50
2019-04-07T19:11:39.720Z,38.30
2019-04-07T19:14:30.520Z,39.93
2019-04-07T19:17:06.947Z,41.10
2019-04-07T19:19:46.292Z,44.63
2019-04-07T19:22:32.623Z,54.43
2019-04-07T19:25:06.670Z,41.30
2019-04-07T19:27:55.238Z,40.93
2019-04-07T19:30:43.641Z,46.10
2019-04-07T19:33:12.165Z,41.53
2019-04-07T19:35:43.348Z,40.10
2019-04-07T19:38:29.396Z,52.17
2019-04-07T19:41:02.730Z,44.77
2019-04-07T19:43:35.615Z,46.40
2019-04-07T19:46:15.841Z,40.77
2019-04-07T19:48:46.842Z,43.90
2019-04-07T19:51:32.306Z,50.13
2019-04-07T19:54:17.394Z,45.60
2019-04-07T19:56:55.303Z,42.43
2019-04-07T19:59:42.916Z,41.73
2019-04-07T20:04:52.517Z,41.20
2019-04-07T20:10:19.929Z,41.87
2019-04-07T20:12:54.161Z,41.80
2019-04-07T20:15:57.665Z,41.17
2019-04-07T20:18:33.658Z,44.70
2019-04-07T20:21:13.159Z,45.73
2019-04-07T20:23:44.128Z,47.43
2019-04-07T20:26:26.247Z,43.03
2019-04-07T20:32:00.507Z,47.10
2019-04-07T20:34:36.616Z,46.47
2019-04-07T20:37:08.331Z,46.00
2019-04-07T20:39:47.763Z,48.50
2019-04-07T20:42:18.275Z,52.70
2019-04-07T20:44:59.943Z,42.10
2019-04-07T20:47:26.359Z,49.33
2019-04-07T20:50:00.140Z,56.90
2019-04-07T20:52:46.073Z,46.43
2019-04-07T20:55:37.328Z,42.30
2019-04-07T20:58:26.635Z,50.80
2019-04-07T21:01:00.599Z,44.67
2019-04-07T21:03:28.830Z,42.83
2019-04-07T21:06:15.077Z,47.70
2019-04-07T21:08:48.069Z,39.40
2019-04-07T21:11:19.296Z,46.23
2019-04-07T21:14:07.219Z,44.20
2019-04-07T21:16:49.913Z,42.63
2019-04-07T21:19:23.015Z,47.87
2019-04-07T21:22:05.532Z,45.50
2019-04-07T21:24:53.973Z,48.43
2019-04-07T21:27:28.412Z,46.83
2019-04-07T21:30:15.109Z,46.90
2019-04-07T21:32:48.517Z,46.73
2019-04-07T21:35:21.329Z,43.43
2019-04-07T21:38:03.431Z,52.93
2019-04-07T21:40:42.191Z,49.10
2019-04-07T21:43:17.967Z,44.70
2019-04-07T21:45:51.596Z,64.40
2019-04-07T21:48:37.083Z,44.47
2019-04-07T21:51:17.103Z,51.10
2019-04-07T21:54:06.263Z,43.90
2019-04-07T21:56:36.946Z,57.63
2019-04-07T21:59:20.065Z,50.97
2019-04-07T22:01:55.732Z,47.13
2019-04-07T22:04:42.217Z,43.93
2019-04-07T22:07:31.574Z,45.90
2019-04-07T22:10:20.394Z,46.07
2019-04-07T22:12:48.366Z,65.53
2019-04-07T22:15:17.232Z,50.00
2019-04-07T22:17:45.899Z,43.30
2019-04-07T22:20:18.865Z,43.37
2019-04-07T22:22:45.338Z,45.90
2019-04-07T22:25:17.421Z,46.50
2019-04-07T22:27:46.263Z,47.93
2019-04-07T22:30:16.430Z,48.07
2019-04-07T22:32:44.882Z,53.13
2019-04-07T22:35:13.546Z,45.47
2019-04-07T22:37:42.773Z,45.97
2019-04-07T22:40:14.415Z,49.37
2019-04-07T22:43:03.751Z,44.50
2019-04-07T22:45:32.451Z,46.27
2019-04-07T22:48:01.340Z,49.63
2019-04-07T22:50:30.514Z,45.77
2019-04-07T22:53:00.056Z,49.77
2019-04-07T22:55:29.187Z,46.80
2019-04-07T22:57:57.974Z,49.83
2019-04-07T23:00:26.799Z,45.50
2019-04-07T23:02:55.466Z,51.97
2019-04-07T23:05:24.477Z,47.90
2019-04-07T23:07:53.249Z,57.50
2019-04-07T23:10:23.182Z,46.00
2019-04-07T23:12:51.838Z,46.17
2019-04-07T23:15:20.770Z,48.67
2019-04-07T23:17:49.409Z,46.90
2019-04-07T23:20:17.906Z,53.07
2019-04-07T23:22:46.654Z,51.90
2019-04-07T23:25:15.517Z,45.67
2019-04-07T23:27:44.229Z,53.17
2019-04-07T23:30:13.978Z,46.90
2019-04-07T23:32:42.425Z,51.20
2019-04-07T23:35:10.911Z,51.37
2019-04-07T23:37:39.335Z,46.73
2019-04-07T23:40:08.630Z,46.77
2019-04-07T23:42:38.186Z,53.07
2019-04-07T23:45:08.208Z,55.10
2019-04-07T23:47:36.745Z,50.17
2019-04-07T23:50:07.777Z,51.10
2019-04-07T23:52:36.223Z,50.90
2019-04-07T23:55:04.637Z,53.67
2019-04-07T23:57:33.053Z,52.10
